sensor_id;sensor_type;location;lat;lon;timestamp;P1;durP1;ratioP1;P2;durP2;ratioP2
41311;SDS011;27061;41.648;24.568;2024-03-08T00:00:19;84.72;;;5.35;;
41311;SDS011;27061;41.648;24.568;2024-03-08T00:02:47;11.38;;;3.97;;
41311;SDS011;27061;41.648;24.568;2024-03-08T00:05:15;180.40;;;6.95;;
41311;SDS011;27061;41.648;24.568;2024-03-08T00:07:42;225.55;;;8.43;;
41311;SDS011;27061;41.648;24.568;2024-03-08T00:10:13;393.42;;;12.35;;
41311;SDS011;27061;41.648;24.568;2024-03-08T00:12:42;495.45;;;16.58;;
41311;SDS011;27061;41.648;24.568;2024-03-08T00:15:13;241.18;;;9.13;;
41311;SDS011;27061;41.648;24.568;2024-03-08T00:17:44;392.70;;;14.23;;
41311;SDS011;27061;41.648;24.568;2024-03-08T00:20:12;89.03;;;7.68;;
41311;SDS011;27061;41.648;24.568;2024-03-08T00:22:41;503.05;;;16.40;;
41311;SDS011;27061;41.648;24.568;2024-03-08T00:25:09;222.93;;;10.10;;
41311;SDS011;27061;41.648;24.568;2024-03-08T00:27:37;309.80;;;13.95;;
41311;SDS011;27061;41.648;24.568;2024-03-08T00:30:05;36.58;;;4.80;;
41311;SDS011;27061;41.648;24.568;2024-03-08T00:32:34;7.50;;;5.25;;
41311;SDS011;27061;41.648;24.568;2024-03-08T00:35:01;4.45;;;3.10;;
41311;SDS011;27061;41.648;24.568;2024-03-08T00:37:34;4.60;;;3.15;;
41311;SDS011;27061;41.648;24.568;2024-03-08T00:40:02;2.80;;;2.60;;
41311;SDS011;27061;41.648;24.568;2024-03-08T00:42:36;2.50;;;2.30;;
41311;SDS011;27061;41.648;24.568;2024-03-08T00:45:08;2.65;;;2.45;;
41311;SDS011;27061;41.648;24.568;2024-03-08T00:47:37;8.25;;;3.38;;
41311;SDS011;27061;41.648;24.568;2024-03-08T00:50:05;3.03;;;1.98;;
41311;SDS011;27061;41.648;24.568;2024-03-08T00:52:35;7.53;;;2.58;;
41311;SDS011;27061;41.648;24.568;2024-03-08T00:55:04;4.72;;;1.92;;
41311;SDS011;27061;41.648;24.568;2024-03-08T00:57:31;2.25;;;1.63;;
41311;SDS011;27061;41.648;24.568;2024-03-08T01:00:00;9.32;;;2.30;;
41311;SDS011;27061;41.648;24.568;2024-03-08T01:02:29;2.88;;;1.98;;
41311;SDS011;27061;41.648;24.568;2024-03-08T01:04:57;2.75;;;2.30;;
41311;SDS011;27061;41.648;24.568;2024-03-08T01:07:24;4.78;;;2.30;;
41311;SDS011;27061;41.648;24.568;2024-03-08T01:09:52;4.03;;;2.22;;
41311;SDS011;27061;41.648;24.568;2024-03-08T01:12:19;2.33;;;2.20;;
41311;SDS011;27061;41.648;24.568;2024-03-08T01:14:47;2.28;;;1.73;;
41311;SDS011;27061;41.648;24.568;2024-03-08T01:17:14;4.32;;;2.08;;
41311;SDS011;27061;41.648;24.568;2024-03-08T01:19:42;2.63;;;2.15;;
41311;SDS011;27061;41.648;24.568;2024-03-08T01:22:13;2.50;;;2.30;;
41311;SDS011;27061;41.648;24.568;2024-03-08T01:24:40;2.13;;;1.95;;
41311;SDS011;27061;41.648;24.568;2024-03-08T01:27:08;2.67;;;2.30;;
41311;SDS011;27061;41.648;24.568;2024-03-08T01:29:36;8.93;;;2.53;;
41311;SDS011;27061;41.648;24.568;2024-03-08T01:32:04;4.43;;;3.55;;
41311;SDS011;27061;41.648;24.568;2024-03-08T01:34:33;8.35;;;4.03;;
41311;SDS011;27061;41.648;24.568;2024-03-08T01:37:00;2.85;;;2.50;;
41311;SDS011;27061;41.648;24.568;2024-03-08T01:39:27;2.35;;;2.15;;
41311;SDS011;27061;41.648;24.568;2024-03-08T01:41:55;3.13;;;2.83;;
41311;SDS011;27061;41.648;24.568;2024-03-08T01:44:22;10.50;;;3.22;;
41311;SDS011;27061;41.648;24.568;2024-03-08T01:46:51;5.80;;;3.03;;
41311;SDS011;27061;41.648;24.568;2024-03-08T01:49:20;3.30;;;3.00;;
41311;SDS011;27061;41.648;24.568;2024-03-08T01:51:49;2.92;;;2.60;;
41311;SDS011;27061;41.648;24.568;2024-03-08T01:54:17;3.40;;;2.58;;
41311;SDS011;27061;41.648;24.568;2024-03-08T01:56:46;6.25;;;2.70;;
41311;SDS011;27061;41.648;24.568;2024-03-08T01:59:15;2.85;;;2.60;;
41311;SDS011;27061;41.648;24.568;2024-03-08T02:01:43;4.80;;;2.53;;
41311;SDS011;27061;41.648;24.568;2024-03-08T02:04:11;3.13;;;2.63;;
41311;SDS011;27061;41.648;24.568;2024-03-08T02:06:38;9.55;;;2.65;;
41311;SDS011;27061;41.648;24.568;2024-03-08T02:09:06;11.82;;;3.10;;
41311;SDS011;27061;41.648;24.568;2024-03-08T02:11:34;2.80;;;2.60;;
41311;SDS011;27061;41.648;24.568;2024-03-08T02:14:03;2.70;;;2.38;;
41311;SDS011;27061;41.648;24.568;2024-03-08T02:16:33;10.82;;;2.78;;
41311;SDS011;27061;41.648;24.568;2024-03-08T02:19:01;10.30;;;2.53;;
41311;SDS011;27061;41.648;24.568;2024-03-08T02:21:28;3.80;;;2.67;;
41311;SDS011;27061;41.648;24.568;2024-03-08T02:23:56;3.72;;;2.53;;
41311;SDS011;27061;41.648;24.568;2024-03-08T02:26:24;3.65;;;2.30;;
41311;SDS011;27061;41.648;24.568;2024-03-08T02:28:51;7.40;;;3.25;;
41311;SDS011;27061;41.648;24.568;2024-03-08T02:31:18;2.55;;;2.35;;
41311;SDS011;27061;41.648;24.568;2024-03-08T02:33:49;2.88;;;2.47;;
41311;SDS011;27061;41.648;24.568;2024-03-08T02:36:16;4.47;;;3.22;;
41311;SDS011;27061;41.648;24.568;2024-03-08T02:38:44;7.45;;;2.95;;
41311;SDS011;27061;41.648;24.568;2024-03-08T02:41:11;8.27;;;3.00;;
41311;SDS011;27061;41.648;24.568;2024-03-08T02:43:39;9.05;;;4.32;;
41311;SDS011;27061;41.648;24.568;2024-03-08T02:46:06;6.22;;;4.97;;
41311;SDS011;27061;41.648;24.568;2024-03-08T02:48:33;22.80;;;3.75;;
41311;SDS011;27061;41.648;24.568;2024-03-08T02:51:02;37.13;;;3.83;;
41311;SDS011;27061;41.648;24.568;2024-03-08T02:53:30;25.25;;;5.55;;
41311;SDS011;27061;41.648;24.568;2024-03-08T02:55:57;232.80;;;10.80;;
41311;SDS011;27061;41.648;24.568;2024-03-08T02:58:25;75.03;;;5.75;;
41311;SDS011;27061;41.648;24.568;2024-03-08T03:00:52;108.18;;;6.50;;
41311;SDS011;27061;41.648;24.568;2024-03-08T03:03:19;21.33;;;4.47;;
41311;SDS011;27061;41.648;24.568;2024-03-08T03:05:47;5.00;;;3.88;;
41311;SDS011;27061;41.648;24.568;2024-03-08T03:08:15;84.18;;;6.45;;
41311;SDS011;27061;41.648;24.568;2024-03-08T03:10:44;16.65;;;3.78;;
41311;SDS011;27061;41.648;24.568;2024-03-08T03:13:13;5.40;;;3.50;;
41311;SDS011;27061;41.648;24.568;2024-03-08T03:15:41;10.82;;;3.75;;
41311;SDS011;27061;41.648;24.568;2024-03-08T03:18:09;4.20;;;3.80;;
41311;SDS011;27061;41.648;24.568;2024-03-08T03:20:36;6.50;;;3.47;;
41311;SDS011;27061;41.648;24.568;2024-03-08T03:23:08;3.40;;;3.10;;
41311;SDS011;27061;41.648;24.568;2024-03-08T03:25:36;3.45;;;3.10;;
41311;SDS011;27061;41.648;24.568;2024-03-08T03:28:05;12.57;;;2.80;;
41311;SDS011;27061;41.648;24.568;2024-03-08T03:30:34;7.80;;;3.80;;
41311;SDS011;27061;41.648;24.568;2024-03-08T03:33:02;9.80;;;3.67;;
41311;SDS011;27061;41.648;24.568;2024-03-08T03:35:34;69.05;;;5.40;;
41311;SDS011;27061;41.648;24.568;2024-03-08T03:38:04;11.63;;;3.97;;
41311;SDS011;27061;41.648;24.568;2024-03-08T03:40:37;22.45;;;3.92;;
41311;SDS011;27061;41.648;24.568;2024-03-08T03:43:06;5.25;;;3.80;;
41311;SDS011;27061;41.648;24.568;2024-03-08T03:45:34;9.63;;;3.08;;
41311;SDS011;27061;41.648;24.568;2024-03-08T03:48:04;6.40;;;4.15;;
41311;SDS011;27061;41.648;24.568;2024-03-08T03:50:37;2.83;;;2.57;;
41311;SDS011;27061;41.648;24.568;2024-03-08T03:53:07;9.50;;;3.97;;
41311;SDS011;27061;41.648;24.568;2024-03-08T03:55:37;3.70;;;3.22;;
41311;SDS011;27061;41.648;24.568;2024-03-08T03:58:08;6.65;;;3.00;;
41311;SDS011;27061;41.648;24.568;2024-03-08T04:00:38;7.25;;;3.10;;
41311;SDS011;27061;41.648;24.568;2024-03-08T04:03:06;7.78;;;3.47;;
41311;SDS011;27061;41.648;24.568;2024-03-08T04:05:34;131.77;;;6.05;;
41311;SDS011;27061;41.648;24.568;2024-03-08T04:08:02;48.92;;;4.53;;
41311;SDS011;27061;41.648;24.568;2024-03-08T04:10:32;13.82;;;4.03;;
41311;SDS011;27061;41.648;24.568;2024-03-08T04:13:00;11.13;;;3.28;;
41311;SDS011;27061;41.648;24.568;2024-03-08T04:15:27;4.63;;;3.15;;
41311;SDS011;27061;41.648;24.568;2024-03-08T04:17:55;4.68;;;3.10;;
41311;SDS011;27061;41.648;24.568;2024-03-08T04:20:22;2.92;;;2.67;;
41311;SDS011;27061;41.648;24.568;2024-03-08T04:22:50;5.82;;;3.10;;
41311;SDS011;27061;41.648;24.568;2024-03-08T04:25:17;7.93;;;3.13;;
41311;SDS011;27061;41.648;24.568;2024-03-08T04:27:45;5.38;;;3.17;;
41311;SDS011;27061;41.648;24.568;2024-03-08T04:30:16;4.60;;;2.95;;
41311;SDS011;27061;41.648;24.568;2024-03-08T04:32:43;15.05;;;4.95;;
41311;SDS011;27061;41.648;24.568;2024-03-08T04:35:11;8.55;;;3.25;;
41311;SDS011;27061;41.648;24.568;2024-03-08T04:37:40;3.65;;;3.28;;
41311;SDS011;27061;41.648;24.568;2024-03-08T04:40:07;5.85;;;2.90;;
41311;SDS011;27061;41.648;24.568;2024-03-08T04:42:35;3.60;;;3.00;;
41311;SDS011;27061;41.648;24.568;2024-03-08T04:45:04;10.75;;;3.92;;
41311;SDS011;27061;41.648;24.568;2024-03-08T04:47:32;15.60;;;3.65;;
41311;SDS011;27061;41.648;24.568;2024-03-08T04:49:59;11.38;;;3.58;;
41311;SDS011;27061;41.648;24.568;2024-03-08T04:52:27;6.03;;;3.60;;
41311;SDS011;27061;41.648;24.568;2024-03-08T04:54:55;17.73;;;3.97;;
41311;SDS011;27061;41.648;24.568;2024-03-08T04:57:22;9.63;;;4.20;;
41311;SDS011;27061;41.648;24.568;2024-03-08T04:59:50;30.60;;;4.90;;
41311;SDS011;27061;41.648;24.568;2024-03-08T05:02:17;9.30;;;4.60;;
41311;SDS011;27061;41.648;24.568;2024-03-08T05:04:44;4.15;;;3.38;;
41311;SDS011;27061;41.648;24.568;2024-03-08T05:07:15;3.88;;;3.50;;
41311;SDS011;27061;41.648;24.568;2024-03-08T05:09:42;10.75;;;3.47;;
41311;SDS011;27061;41.648;24.568;2024-03-08T05:12:10;19.17;;;3.13;;
41311;SDS011;27061;41.648;24.568;2024-03-08T05:14:38;5.20;;;3.30;;
41311;SDS011;27061;41.648;24.568;2024-03-08T05:17:06;169.45;;;7.80;;
41311;SDS011;27061;41.648;24.568;2024-03-08T05:19:33;31.30;;;5.22;;
41311;SDS011;27061;41.648;24.568;2024-03-08T05:22:03;8.43;;;3.63;;
41311;SDS011;27061;41.648;24.568;2024-03-08T05:24:31;12.30;;;4.13;;
41311;SDS011;27061;41.648;24.568;2024-03-08T05:27:02;17.42;;;3.45;;
41311;SDS011;27061;41.648;24.568;2024-03-08T05:29:30;14.48;;;4.78;;
41311;SDS011;27061;41.648;24.568;2024-03-08T05:31:57;14.55;;;3.90;;
41311;SDS011;27061;41.648;24.568;2024-03-08T05:34:29;21.73;;;4.60;;
41311;SDS011;27061;41.648;24.568;2024-03-08T05:36:57;12.68;;;5.07;;
41311;SDS011;27061;41.648;24.568;2024-03-08T05:39:25;7.47;;;4.20;;
41311;SDS011;27061;41.648;24.568;2024-03-08T05:41:52;15.10;;;4.03;;
41311;SDS011;27061;41.648;24.568;2024-03-08T05:44:22;19.23;;;4.32;;
41311;SDS011;27061;41.648;24.568;2024-03-08T05:46:49;6.47;;;3.42;;
41311;SDS011;27061;41.648;24.568;2024-03-08T05:49:17;10.73;;;4.00;;
41311;SDS011;27061;41.648;24.568;2024-03-08T05:51:44;31.30;;;8.95;;
41311;SDS011;27061;41.648;24.568;2024-03-08T05:54:14;52.42;;;8.98;;
41311;SDS011;27061;41.648;24.568;2024-03-08T05:56:45;9.77;;;5.10;;
41311;SDS011;27061;41.648;24.568;2024-03-08T05:59:14;6.25;;;4.03;;
41311;SDS011;27061;41.648;24.568;2024-03-08T06:01:41;10.55;;;3.38;;
41311;SDS011;27061;41.648;24.568;2024-03-08T06:04:09;8.00;;;3.45;;
41311;SDS011;27061;41.648;24.568;2024-03-08T06:06:39;22.85;;;5.55;;
41311;SDS011;27061;41.648;24.568;2024-03-08T06:09:07;19.67;;;5.95;;
41311;SDS011;27061;41.648;24.568;2024-03-08T06:11:51;5.90;;;4.03;;
41311;SDS011;27061;41.648;24.568;2024-03-08T06:14:21;9.77;;;3.10;;
41311;SDS011;27061;41.648;24.568;2024-03-08T06:16:49;25.77;;;3.28;;
41311;SDS011;27061;41.648;24.568;2024-03-08T06:19:19;22.27;;;4.75;;
41311;SDS011;27061;41.648;24.568;2024-03-08T06:21:46;3.47;;;3.15;;
41311;SDS011;27061;41.648;24.568;2024-03-08T06:24:14;30.80;;;4.18;;
41311;SDS011;27061;41.648;24.568;2024-03-08T06:26:42;7.32;;;2.72;;
41311;SDS011;27061;41.648;24.568;2024-03-08T06:29:10;9.95;;;2.58;;
41311;SDS011;27061;41.648;24.568;2024-03-08T06:31:37;6.07;;;2.83;;
41311;SDS011;27061;41.648;24.568;2024-03-08T06:34:08;8.07;;;5.10;;
41311;SDS011;27061;41.648;24.568;2024-03-08T06:36:36;12.82;;;3.72;;
41311;SDS011;27061;41.648;24.568;2024-03-08T06:39:05;2.03;;;1.80;;
41311;SDS011;27061;41.648;24.568;2024-03-08T06:41:37;12.13;;;4.68;;
41311;SDS011;27061;41.648;24.568;2024-03-08T06:44:05;3.28;;;3.08;;
41311;SDS011;27061;41.648;24.568;2024-03-08T06:46:34;13.65;;;3.97;;
41311;SDS011;27061;41.648;24.568;2024-03-08T06:49:01;3.00;;;2.47;;
41311;SDS011;27061;41.648;24.568;2024-03-08T06:51:30;4.35;;;2.42;;
41311;SDS011;27061;41.648;24.568;2024-03-08T06:53:57;4.70;;;2.20;;
41311;SDS011;27061;41.648;24.568;2024-03-08T06:56:25;2.25;;;1.67;;
41311;SDS011;27061;41.648;24.568;2024-03-08T06:58:52;8.88;;;2.45;;
41311;SDS011;27061;41.648;24.568;2024-03-08T07:01:19;10.13;;;3.20;;
41311;SDS011;27061;41.648;24.568;2024-03-08T07:03:48;21.17;;;2.85;;
41311;SDS011;27061;41.648;24.568;2024-03-08T07:06:15;9.07;;;2.80;;
41311;SDS011;27061;41.648;24.568;2024-03-08T07:08:44;6.63;;;2.70;;
41311;SDS011;27061;41.648;24.568;2024-03-08T07:11:12;8.57;;;2.70;;
41311;SDS011;27061;41.648;24.568;2024-03-08T07:13:42;7.60;;;2.60;;
41311;SDS011;27061;41.648;24.568;2024-03-08T07:16:09;1.70;;;1.60;;
41311;SDS011;27061;41.648;24.568;2024-03-08T07:18:38;2.03;;;1.90;;
41311;SDS011;27061;41.648;24.568;2024-03-08T07:21:10;12.30;;;3.28;;
41311;SDS011;27061;41.648;24.568;2024-03-08T07:23:38;2.60;;;2.40;;
41311;SDS011;27061;41.648;24.568;2024-03-08T07:26:34;7.50;;;3.15;;
41311;SDS011;27061;41.648;24.568;2024-03-08T07:29:01;8.65;;;2.60;;
41311;SDS011;27061;41.648;24.568;2024-03-08T07:31:28;12.05;;;3.88;;
41311;SDS011;27061;41.648;24.568;2024-03-08T07:34:12;2.42;;;2.22;;
41311;SDS011;27061;41.648;24.568;2024-03-08T07:36:39;4.00;;;2.65;;
41311;SDS011;27061;41.648;24.568;2024-03-08T07:39:06;2.58;;;2.38;;
41311;SDS011;27061;41.648;24.568;2024-03-08T07:41:38;3.20;;;2.67;;
41311;SDS011;27061;41.648;24.568;2024-03-08T07:44:09;6.25;;;3.10;;
41311;SDS011;27061;41.648;24.568;2024-03-08T07:46:37;7.50;;;2.78;;
41311;SDS011;27061;41.648;24.568;2024-03-08T07:49:05;7.07;;;2.92;;
41311;SDS011;27061;41.648;24.568;2024-03-08T07:51:33;34.22;;;11.43;;
41311;SDS011;27061;41.648;24.568;2024-03-08T07:54:01;12.35;;;3.30;;
41311;SDS011;27061;41.648;24.568;2024-03-08T07:56:31;6.22;;;2.80;;
41311;SDS011;27061;41.648;24.568;2024-03-08T07:58:59;2.55;;;2.35;;
41311;SDS011;27061;41.648;24.568;2024-03-08T08:01:26;2.40;;;2.20;;
41311;SDS011;27061;41.648;24.568;2024-03-08T08:03:54;5.68;;;2.00;;
41311;SDS011;27061;41.648;24.568;2024-03-08T08:06:21;3.13;;;2.40;;
41311;SDS011;27061;41.648;24.568;2024-03-08T08:08:52;15.15;;;2.83;;
41311;SDS011;27061;41.648;24.568;2024-03-08T08:11:28;7.50;;;3.60;;
41311;SDS011;27061;41.648;24.568;2024-03-08T08:13:55;2.83;;;2.30;;
41311;SDS011;27061;41.648;24.568;2024-03-08T08:16:26;1.92;;;1.83;;
41311;SDS011;27061;41.648;24.568;2024-03-08T08:18:53;11.60;;;2.30;;
41311;SDS011;27061;41.648;24.568;2024-03-08T08:21:21;12.35;;;2.67;;
41311;SDS011;27061;41.648;24.568;2024-03-08T08:23:49;8.98;;;2.35;;
41311;SDS011;27061;41.648;24.568;2024-03-08T08:26:16;9.75;;;3.08;;
41311;SDS011;27061;41.648;24.568;2024-03-08T08:28:44;7.15;;;2.95;;
41311;SDS011;27061;41.648;24.568;2024-03-08T08:31:13;2.92;;;2.60;;
41311;SDS011;27061;41.648;24.568;2024-03-08T08:33:40;4.32;;;3.10;;
41311;SDS011;27061;41.648;24.568;2024-03-08T08:36:08;11.35;;;3.20;;
41311;SDS011;27061;41.648;24.568;2024-03-08T08:38:36;7.22;;;3.30;;
41311;SDS011;27061;41.648;24.568;2024-03-08T08:41:04;10.90;;;3.75;;
41311;SDS011;27061;41.648;24.568;2024-03-08T08:43:33;9.57;;;1.98;;
41311;SDS011;27061;41.648;24.568;2024-03-08T08:46:01;2.28;;;2.08;;
41311;SDS011;27061;41.648;24.568;2024-03-08T08:48:29;1.90;;;1.80;;
41311;SDS011;27061;41.648;24.568;2024-03-08T08:50:57;3.13;;;1.85;;
41311;SDS011;27061;41.648;24.568;2024-03-08T08:53:24;1.85;;;1.75;;
41311;SDS011;27061;41.648;24.568;2024-03-08T08:55:51;9.70;;;1.98;;
41311;SDS011;27061;41.648;24.568;2024-03-08T08:58:20;8.13;;;1.85;;
41311;SDS011;27061;41.648;24.568;2024-03-08T09:00:47;1.83;;;1.73;;
41311;SDS011;27061;41.648;24.568;2024-03-08T09:03:16;4.32;;;2.13;;
41311;SDS011;27061;41.648;24.568;2024-03-08T09:05:44;3.67;;;2.38;;
41311;SDS011;27061;41.648;24.568;2024-03-08T09:08:11;6.53;;;2.00;;
41311;SDS011;27061;41.648;24.568;2024-03-08T09:10:40;6.72;;;2.70;;
41311;SDS011;27061;41.648;24.568;2024-03-08T09:13:07;3.42;;;2.30;;
41311;SDS011;27061;41.648;24.568;2024-03-08T09:15:44;2.20;;;2.00;;
41311;SDS011;27061;41.648;24.568;2024-03-08T09:18:11;3.25;;;2.17;;
41311;SDS011;27061;41.648;24.568;2024-03-08T09:20:39;4.03;;;3.15;;
41311;SDS011;27061;41.648;24.568;2024-03-08T09:23:08;2.95;;;1.48;;
41311;SDS011;27061;41.648;24.568;2024-03-08T09:25:35;1.20;;;1.20;;
41311;SDS011;27061;41.648;24.568;2024-03-08T09:28:03;1.15;;;0.98;;
41311;SDS011;27061;41.648;24.568;2024-03-08T09:30:32;1.85;;;1.25;;
41311;SDS011;27061;41.648;24.568;2024-03-08T09:33:01;10.13;;;2.08;;
41311;SDS011;27061;41.648;24.568;2024-03-08T09:35:29;2.22;;;2.03;;
41311;SDS011;27061;41.648;24.568;2024-03-08T09:37:57;6.82;;;2.35;;
41311;SDS011;27061;41.648;24.568;2024-03-08T09:40:24;1.45;;;1.35;;
41311;SDS011;27061;41.648;24.568;2024-03-08T09:42:55;2.55;;;1.27;;
41311;SDS011;27061;41.648;24.568;2024-03-08T09:45:23;8.40;;;2.25;;
41311;SDS011;27061;41.648;24.568;2024-03-08T09:47:52;2.40;;;1.60;;
41311;SDS011;27061;41.648;24.568;2024-03-08T09:50:21;9.70;;;1.90;;
41311;SDS011;27061;41.648;24.568;2024-03-08T09:52:49;2.33;;;1.60;;
41311;SDS011;27061;41.648;24.568;2024-03-08T09:55:17;1.30;;;1.30;;
41311;SDS011;27061;41.648;24.568;2024-03-08T09:57:51;2.70;;;1.73;;
41311;SDS011;27061;41.648;24.568;2024-03-08T10:00:38;1.70;;;1.60;;
41311;SDS011;27061;41.648;24.568;2024-03-08T10:03:05;8.68;;;1.52;;
41311;SDS011;27061;41.648;24.568;2024-03-08T10:05:33;32.33;;;8.52;;
41311;SDS011;27061;41.648;24.568;2024-03-08T10:08:00;2.80;;;1.10;;
41311;SDS011;27061;41.648;24.568;2024-03-08T10:10:28;6.30;;;1.60;;
41311;SDS011;27061;41.648;24.568;2024-03-08T10:12:56;1.75;;;1.48;;
41311;SDS011;27061;41.648;24.568;2024-03-08T10:15:23;2.03;;;1.50;;
41311;SDS011;27061;41.648;24.568;2024-03-08T10:17:57;0.80;;;0.80;;
41311;SDS011;27061;41.648;24.568;2024-03-08T10:20:25;4.25;;;1.35;;
41311;SDS011;27061;41.648;24.568;2024-03-08T10:22:55;4.00;;;1.38;;
41311;SDS011;27061;41.648;24.568;2024-03-08T10:25:36;2.42;;;1.63;;
41311;SDS011;27061;41.648;24.568;2024-03-08T10:28:13;3.95;;;1.55;;
41311;SDS011;27061;41.648;24.568;2024-03-08T10:30:46;27.88;;;8.68;;
41311;SDS011;27061;41.648;24.568;2024-03-08T10:33:14;1.00;;;1.00;;
41311;SDS011;27061;41.648;24.568;2024-03-08T10:35:42;5.95;;;1.35;;
41311;SDS011;27061;41.648;24.568;2024-03-08T10:38:12;6.53;;;1.70;;
41311;SDS011;27061;41.648;24.568;2024-03-08T10:40:49;1.33;;;1.33;;
41311;SDS011;27061;41.648;24.568;2024-03-08T10:43:22;0.88;;;0.88;;
41311;SDS011;27061;41.648;24.568;2024-03-08T10:49:08;0.90;;;0.90;;
41311;SDS011;27061;41.648;24.568;2024-03-08T10:51:44;0.98;;;0.98;;
41311;SDS011;27061;41.648;24.568;2024-03-08T10:54:14;1.27;;;1.17;;
41311;SDS011;27061;41.648;24.568;2024-03-08T10:56:42;5.78;;;1.70;;
41311;SDS011;27061;41.648;24.568;2024-03-08T10:59:10;0.70;;;0.57;;
41311;SDS011;27061;41.648;24.568;2024-03-08T11:01:37;3.03;;;0.77;;
41311;SDS011;27061;41.648;24.568;2024-03-08T11:04:05;3.30;;;0.82;;
41311;SDS011;27061;41.648;24.568;2024-03-08T11:14:53;16.80;;;4.57;;
41311;SDS011;27061;41.648;24.568;2024-03-08T11:17:25;2.47;;;1.17;;
41311;SDS011;27061;41.648;24.568;2024-03-08T11:19:56;3.70;;;1.42;;
41311;SDS011;27061;41.648;24.568;2024-03-08T11:22:30;3.08;;;0.80;;
41311;SDS011;27061;41.648;24.568;2024-03-08T11:25:03;6.13;;;0.90;;
41311;SDS011;27061;41.648;24.568;2024-03-08T11:27:52;1.63;;;1.42;;
41311;SDS011;27061;41.648;24.568;2024-03-08T11:30:32;2.17;;;1.00;;
41311;SDS011;27061;41.648;24.568;2024-03-08T11:33:03;0.80;;;0.80;;
41311;SDS011;27061;41.648;24.568;2024-03-08T11:35:30;15.43;;;1.90;;
41311;SDS011;27061;41.648;24.568;2024-03-08T11:37:58;7.20;;;1.05;;
41311;SDS011;27061;41.648;24.568;2024-03-08T11:40:27;1.80;;;1.00;;
41311;SDS011;27061;41.648;24.568;2024-03-08T11:46:07;2.45;;;1.20;;
41311;SDS011;27061;41.648;24.568;2024-03-08T11:48:35;9.98;;;2.15;;
41311;SDS011;27061;41.648;24.568;2024-03-08T11:51:03;1.17;;;1.08;;
41311;SDS011;27061;41.648;24.568;2024-03-08T11:53:31;7.75;;;1.70;;
41311;SDS011;27061;41.648;24.568;2024-03-08T11:56:08;1.85;;;1.00;;
41311;SDS011;27061;41.648;24.568;2024-03-08T11:58:54;1.40;;;1.30;;
41311;SDS011;27061;41.648;24.568;2024-03-08T12:01:25;11.73;;;2.53;;
41311;SDS011;27061;41.648;24.568;2024-03-08T12:03:53;5.68;;;2.25;;
41311;SDS011;27061;41.648;24.568;2024-03-08T12:06:22;1.52;;;1.42;;
41311;SDS011;27061;41.648;24.568;2024-03-08T12:08:49;1.05;;;1.00;;
41311;SDS011;27061;41.648;24.568;2024-03-08T12:11:17;1.08;;;1.08;;
41311;SDS011;27061;41.648;24.568;2024-03-08T12:13:51;3.00;;;1.25;;
41311;SDS011;27061;41.648;24.568;2024-03-08T12:16:19;7.55;;;1.52;;
41311;SDS011;27061;41.648;24.568;2024-03-08T12:18:51;5.25;;;1.17;;
41311;SDS011;27061;41.648;24.568;2024-03-08T12:21:20;1.75;;;1.35;;
41311;SDS011;27061;41.648;24.568;2024-03-08T12:24:06;2.47;;;1.80;;
41311;SDS011;27061;41.648;24.568;2024-03-08T12:26:36;1.20;;;1.20;;
41311;SDS011;27061;41.648;24.568;2024-03-08T12:29:15;6.85;;;1.63;;
41311;SDS011;27061;41.648;24.568;2024-03-08T12:31:44;1.40;;;1.30;;
41311;SDS011;27061;41.648;24.568;2024-03-08T12:34:13;1.25;;;1.17;;
41311;SDS011;27061;41.648;24.568;2024-03-08T12:36:44;1.58;;;1.48;;
41311;SDS011;27061;41.648;24.568;2024-03-08T12:39:17;1.75;;;1.20;;
41311;SDS011;27061;41.648;24.568;2024-03-08T12:41:49;1.15;;;1.15;;
41311;SDS011;27061;41.648;24.568;2024-03-08T12:44:20;2.20;;;0.90;;
41311;SDS011;27061;41.648;24.568;2024-03-08T12:46:50;4.47;;;1.20;;
41311;SDS011;27061;41.648;24.568;2024-03-08T12:49:19;1.92;;;1.13;;
41311;SDS011;27061;41.648;24.568;2024-03-08T12:51:49;4.20;;;1.27;;
41311;SDS011;27061;41.648;24.568;2024-03-08T12:54:20;2.30;;;1.50;;
41311;SDS011;27061;41.648;24.568;2024-03-08T12:56:53;2.60;;;1.45;;
41311;SDS011;27061;41.648;24.568;2024-03-08T12:59:21;3.20;;;1.38;;
41311;SDS011;27061;41.648;24.568;2024-03-08T13:01:50;7.05;;;1.70;;
41311;SDS011;27061;41.648;24.568;2024-03-08T13:04:20;3.92;;;1.05;;
41311;SDS011;27061;41.648;24.568;2024-03-08T13:06:49;1.95;;;1.00;;
41311;SDS011;27061;41.648;24.568;2024-03-08T13:09:21;10.63;;;1.40;;
41311;SDS011;27061;41.648;24.568;2024-03-08T13:11:49;2.05;;;1.20;;
41311;SDS011;27061;41.648;24.568;2024-03-08T13:14:17;1.05;;;1.05;;
41311;SDS011;27061;41.648;24.568;2024-03-08T13:16:44;3.40;;;0.77;;
41311;SDS011;27061;41.648;24.568;2024-03-08T13:19:15;0.88;;;0.75;;
41311;SDS011;27061;41.648;24.568;2024-03-08T13:21:43;5.38;;;1.05;;
41311;SDS011;27061;41.648;24.568;2024-03-08T13:24:16;2.78;;;1.33;;
41311;SDS011;27061;41.648;24.568;2024-03-08T13:26:46;3.90;;;1.10;;
41311;SDS011;27061;41.648;24.568;2024-03-08T13:29:14;1.42;;;1.00;;
41311;SDS011;27061;41.648;24.568;2024-03-08T13:31:42;35.75;;;13.32;;
41311;SDS011;27061;41.648;24.568;2024-03-08T13:34:13;2.10;;;1.65;;
41311;SDS011;27061;41.648;24.568;2024-03-08T13:36:42;4.82;;;1.60;;
41311;SDS011;27061;41.648;24.568;2024-03-08T13:39:11;4.95;;;1.73;;
41311;SDS011;27061;41.648;24.568;2024-03-08T13:41:47;1.75;;;1.20;;
41311;SDS011;27061;41.648;24.568;2024-03-08T13:44:15;7.38;;;1.63;;
41311;SDS011;27061;41.648;24.568;2024-03-08T13:46:46;5.50;;;1.50;;
41311;SDS011;27061;41.648;24.568;2024-03-08T13:49:18;8.98;;;2.10;;
41311;SDS011;27061;41.648;24.568;2024-03-08T13:51:46;10.45;;;2.25;;
41311;SDS011;27061;41.648;24.568;2024-03-08T13:54:13;2.47;;;1.33;;
41311;SDS011;27061;41.648;24.568;2024-03-08T13:56:43;2.72;;;1.40;;
41311;SDS011;27061;41.648;24.568;2024-03-08T13:59:12;8.40;;;1.80;;
41311;SDS011;27061;41.648;24.568;2024-03-08T14:01:40;1.33;;;1.27;;
41311;SDS011;27061;41.648;24.568;2024-03-08T14:04:07;13.30;;;2.58;;
41311;SDS011;27061;41.648;24.568;2024-03-08T14:06:35;8.85;;;2.70;;
41311;SDS011;27061;41.648;24.568;2024-03-08T14:09:02;4.13;;;1.70;;
41311;SDS011;27061;41.648;24.568;2024-03-08T14:11:30;3.78;;;1.80;;
41311;SDS011;27061;41.648;24.568;2024-03-08T14:13:57;3.40;;;2.50;;
41311;SDS011;27061;41.648;24.568;2024-03-08T14:16:25;6.25;;;2.85;;
41311;SDS011;27061;41.648;24.568;2024-03-08T14:18:52;2.15;;;1.85;;
41311;SDS011;27061;41.648;24.568;2024-03-08T14:21:20;5.40;;;1.83;;
41311;SDS011;27061;41.648;24.568;2024-03-08T14:23:48;19.55;;;2.40;;
41311;SDS011;27061;41.648;24.568;2024-03-08T14:26:19;1.58;;;1.48;;
41311;SDS011;27061;41.648;24.568;2024-03-08T14:28:48;18.45;;;2.65;;
41311;SDS011;27061;41.648;24.568;2024-03-08T14:31:18;7.93;;;2.10;;
41311;SDS011;27061;41.648;24.568;2024-03-08T14:33:46;1.58;;;1.48;;
41311;SDS011;27061;41.648;24.568;2024-03-08T14:36:16;8.32;;;2.60;;
41311;SDS011;27061;41.648;24.568;2024-03-08T14:38:47;2.90;;;1.67;;
41311;SDS011;27061;41.648;24.568;2024-03-08T14:41:14;5.35;;;1.98;;
41311;SDS011;27061;41.648;24.568;2024-03-08T14:43:42;3.65;;;2.50;;
41311;SDS011;27061;41.648;24.568;2024-03-08T14:46:15;2.08;;;1.92;;
41311;SDS011;27061;41.648;24.568;2024-03-08T14:48:47;3.05;;;2.47;;
41311;SDS011;27061;41.648;24.568;2024-03-08T14:51:20;5.65;;;2.58;;
41311;SDS011;27061;41.648;24.568;2024-03-08T14:53:49;12.40;;;2.65;;
41311;SDS011;27061;41.648;24.568;2024-03-08T14:56:16;3.40;;;2.15;;